Berrien Center, MI (49102)

8:29 AM EDT on March 29, 2017 (GMT -0400)
Long Lake Rd. | | Change Station

Elev 761 ft 41.91 °N, 86.29 °W | Updated 52 seconds ago

Clear
Clear
38.7 °F
Feels Like 39 °F
N
2.0
Wind Variable Wind from East

Today
High -- | Low -- °F
--% Chance of Precip.
Yesterday
High -- | Low -- °F
Precip. -- in
Pressure 30.27 in
Visibility 6.0 miles
Clouds Clear
Windchill 39 °F
Dew Point 38 °F
Humidity 96%
Rainfall 0.00 in
Snow Depth Not available.
7:32 AM 8:07 PM
Waxing Crescent, 3% visible
METAR KBEH 291153Z AUTO 07004KT 6SM BR CLR M01/M02 A3025 RMK AO2 SLP250 I1000 I6000 T10111022 11006 21022 52009
Pressure 30.27 in
Visibility 6.0 miles
Clouds Clear
Windchill 39 °F
Dew Point 38 °F
Humidity 96%
Rainfall 0.00 in
Snow Depth Not available.
7:32 AM 8:07 PM
Waxing Crescent, 3% visible
METAR KBEH 291153Z AUTO 07004KT 6SM BR CLR M01/M02 A3025 RMK AO2 SLP250 I1000 I6000 T10111022 11006 21022 52009

Get Severe Weather Alerts

Thanks for signing up!

Be on the lookout for a verification email in your inbox.

You'll start receiving the daily forecast at 8 AM.

×

10-Day Weather Forecast

Almanac

Astronomy

Mar. 29, 2017 Rise Set
Actual Time
Civil Twilight
Nautical Twilight
Astronomical Twilight
Moon
Length of Visible Light
Length of Day
Tomorrow will be .
, % of the Moon is Illuminated

Today's Extremes

State Highs State Lows

Community

WunderPhotos

Upload Photos

1,962,540 photos uploaded!

WunderBlog® & News

Nearby

Air Quality

  Air Quality AQ Index Pollutant
Not available.

Snow Depth

Station Depth Elevation

Earthquake Activity

City Distance Mag. Time & Date
Minimum magnitude displayed is 2.5.

Earthquake Activity

City Distance Mag. Time & Date
Minimum magnitude displayed is 2.5.

Coastal Water Temperatures

Place Temperature

Stations

Nearby Weather Stations

Station Location Temp. Windchill Dew Point Humidity Wind Precip. Elev Updated Type
                   

Watches & Warnings

There are currently no watches in effect.